sensor_id;sensor_type;location;lat;lon;timestamp;temperature;humidity
3001;DHT22;1510;51.072;6.678;2023-01-30T00:00:32;3.60;99.90
3001;DHT22;1510;51.072;6.678;2023-01-30T00:02:59;3.60;99.90
3001;DHT22;1510;51.072;6.678;2023-01-30T00:05:26;3.80;99.90
3001;DHT22;1510;51.072;6.678;2023-01-30T00:07:53;3.70;99.90
3001;DHT22;1510;51.072;6.678;2023-01-30T00:10:19;3.70;99.90
3001;DHT22;1510;51.072;6.678;2023-01-30T00:12:47;3.70;99.90
3001;DHT22;1510;51.072;6.678;2023-01-30T00:15:14;3.80;99.90
3001;DHT22;1510;51.072;6.678;2023-01-30T00:17:41;3.90;99.90
3001;DHT22;1510;51.072;6.678;2023-01-30T00:20:09;4.00;99.90
3001;DHT22;1510;51.072;6.678;2023-01-30T00:22:36;4.10;99.90
3001;DHT22;1510;51.072;6.678;2023-01-30T00:25:03;4.00;99.90
3001;DHT22;1510;51.072;6.678;2023-01-30T00:27:30;4.10;99.90
3001;DHT22;1510;51.072;6.678;2023-01-30T00:29:58;4.10;99.90
3001;DHT22;1510;51.072;6.678;2023-01-30T00:32:26;4.20;99.90
3001;DHT22;1510;51.072;6.678;2023-01-30T00:34:53;4.30;99.90
3001;DHT22;1510;51.072;6.678;2023-01-30T00:37:20;4.30;99.90
3001;DHT22;1510;51.072;6.678;2023-01-30T00:39:46;4.30;99.90
3001;DHT22;1510;51.072;6.678;2023-01-30T00:42:13;4.40;99.90
3001;DHT22;1510;51.072;6.678;2023-01-30T00:45:09;4.30;99.90
3001;DHT22;1510;51.072;6.678;2023-01-30T00:47:54;4.30;99.90
3001;DHT22;1510;51.072;6.678;2023-01-30T00:50:20;4.20;99.90
3001;DHT22;1510;51.072;6.678;2023-01-30T00:52:47;4.30;99.90
3001;DHT22;1510;51.072;6.678;2023-01-30T00:55:14;4.30;99.90
3001;DHT22;1510;51.072;6.678;2023-01-30T00:57:41;4.30;99.90
3001;DHT22;1510;51.072;6.678;2023-01-30T01:00:12;4.30;99.90
3001;DHT22;1510;51.072;6.678;2023-01-30T01:02:41;4.30;99.90
3001;DHT22;1510;51.072;6.678;2023-01-30T01:05:08;4.30;99.90
3001;DHT22;1510;51.072;6.678;2023-01-30T01:07:35;4.30;99.90
3001;DHT22;1510;51.072;6.678;2023-01-30T01:10:01;4.40;99.90
3001;DHT22;1510;51.072;6.678;2023-01-30T01:12:28;4.30;99.90
3001;DHT22;1510;51.072;6.678;2023-01-30T01:14:55;4.30;99.90
3001;DHT22;1510;51.072;6.678;2023-01-30T01:17:23;4.40;99.90
3001;DHT22;1510;51.072;6.678;2023-01-30T01:19:50;4.40;99.90
3001;DHT22;1510;51.072;6.678;2023-01-30T01:22:16;4.40;99.90
3001;DHT22;1510;51.072;6.678;2023-01-30T01:24:43;4.40;99.90
3001;DHT22;1510;51.072;6.678;2023-01-30T01:27:10;4.50;99.90
3001;DHT22;1510;51.072;6.678;2023-01-30T01:29:36;4.50;99.90
3001;DHT22;1510;51.072;6.678;2023-01-30T01:32:04;4.50;99.90
3001;DHT22;1510;51.072;6.678;2023-01-30T01:34:32;4.50;99.90
3001;DHT22;1510;51.072;6.678;2023-01-30T01:36:58;4.40;99.90
3001;DHT22;1510;51.072;6.678;2023-01-30T01:39:25;4.50;99.90
3001;DHT22;1510;51.072;6.678;2023-01-30T01:42:12;4.50;99.90
3001;DHT22;1510;51.072;6.678;2023-01-30T01:44:57;4.50;99.90
3001;DHT22;1510;51.072;6.678;2023-01-30T01:47:24;4.50;99.90
3001;DHT22;1510;51.072;6.678;2023-01-30T01:49:52;4.60;99.90
3001;DHT22;1510;51.072;6.678;2023-01-30T01:52:19;4.50;99.90
3001;DHT22;1510;51.072;6.678;2023-01-30T01:54:51;4.50;99.90
3001;DHT22;1510;51.072;6.678;2023-01-30T01:57:21;4.60;99.90
3001;DHT22;1510;51.072;6.678;2023-01-30T01:59:51;4.60;99.90
3001;DHT22;1510;51.072;6.678;2023-01-30T02:02:19;4.50;99.90
3001;DHT22;1510;51.072;6.678;2023-01-30T02:04:48;4.60;99.90
3001;DHT22;1510;51.072;6.678;2023-01-30T02:07:34;4.60;99.90
3001;DHT22;1510;51.072;6.678;2023-01-30T02:10:03;4.70;99.90
3001;DHT22;1510;51.072;6.678;2023-01-30T02:12:30;4.70;99.90
3001;DHT22;1510;51.072;6.678;2023-01-30T02:14:58;4.70;99.90
3001;DHT22;1510;51.072;6.678;2023-01-30T02:17:26;4.70;99.90
3001;DHT22;1510;51.072;6.678;2023-01-30T02:19:56;4.60;99.90
3001;DHT22;1510;51.072;6.678;2023-01-30T02:23:02;4.60;99.90
3001;DHT22;1510;51.072;6.678;2023-01-30T02:25:55;4.60;99.90
3001;DHT22;1510;51.072;6.678;2023-01-30T02:28:58;4.60;99.90
3001;DHT22;1510;51.072;6.678;2023-01-30T02:31:35;4.50;99.90
3001;DHT22;1510;51.072;6.678;2023-01-30T02:34:15;4.50;99.90
3001;DHT22;1510;51.072;6.678;2023-01-30T02:36:53;4.50;99.90
3001;DHT22;1510;51.072;6.678;2023-01-30T02:39:35;4.50;99.90
3001;DHT22;1510;51.072;6.678;2023-01-30T02:42:10;4.50;99.90
3001;DHT22;1510;51.072;6.678;2023-01-30T02:44:47;4.50;99.90
3001;DHT22;1510;51.072;6.678;2023-01-30T02:47:22;4.50;99.90
3001;DHT22;1510;51.072;6.678;2023-01-30T02:49:52;4.50;99.90
3001;DHT22;1510;51.072;6.678;2023-01-30T02:52:22;4.50;99.90
3001;DHT22;1510;51.072;6.678;2023-01-30T02:54:49;4.60;99.90
3001;DHT22;1510;51.072;6.678;2023-01-30T02:57:24;4.60;99.90
3001;DHT22;1510;51.072;6.678;2023-01-30T02:59:54;4.60;99.90
3001;DHT22;1510;51.072;6.678;2023-01-30T03:02:38;4.70;99.90
3001;DHT22;1510;51.072;6.678;2023-01-30T03:05:31;4.80;99.90
3001;DHT22;1510;51.072;6.678;2023-01-30T03:08:09;4.80;99.90
3001;DHT22;1510;51.072;6.678;2023-01-30T03:10:43;4.90;99.90
3001;DHT22;1510;51.072;6.678;2023-01-30T03:13:17;4.90;99.90
3001;DHT22;1510;51.072;6.678;2023-01-30T03:15:49;4.80;99.90
3001;DHT22;1510;51.072;6.678;2023-01-30T03:18:18;5.00;99.90
3001;DHT22;1510;51.072;6.678;2023-01-30T03:20:46;4.90;99.90
3001;DHT22;1510;51.072;6.678;2023-01-30T03:23:13;5.00;99.90
3001;DHT22;1510;51.072;6.678;2023-01-30T03:25:41;5.00;99.90
3001;DHT22;1510;51.072;6.678;2023-01-30T03:28:13;4.90;99.90
3001;DHT22;1510;51.072;6.678;2023-01-30T03:30:41;4.90;99.90
3001;DHT22;1510;51.072;6.678;2023-01-30T03:33:08;5.00;99.90
3001;DHT22;1510;51.072;6.678;2023-01-30T03:35:36;5.00;99.90
3001;DHT22;1510;51.072;6.678;2023-01-30T03:38:03;5.00;99.90
3001;DHT22;1510;51.072;6.678;2023-01-30T03:40:30;5.00;99.90
3001;DHT22;1510;51.072;6.678;2023-01-30T03:42:57;5.00;99.90
3001;DHT22;1510;51.072;6.678;2023-01-30T03:45:24;5.00;99.90
3001;DHT22;1510;51.072;6.678;2023-01-30T03:47:51;5.00;99.90
3001;DHT22;1510;51.072;6.678;2023-01-30T03:50:18;5.00;99.90
3001;DHT22;1510;51.072;6.678;2023-01-30T03:52:46;5.10;99.90
3001;DHT22;1510;51.072;6.678;2023-01-30T03:55:13;5.00;99.90
3001;DHT22;1510;51.072;6.678;2023-01-30T03:57:39;5.10;99.90
3001;DHT22;1510;51.072;6.678;2023-01-30T04:00:07;5.10;99.90
3001;DHT22;1510;51.072;6.678;2023-01-30T04:02:34;5.10;99.90
3001;DHT22;1510;51.072;6.678;2023-01-30T04:05:03;5.00;99.90
3001;DHT22;1510;51.072;6.678;2023-01-30T04:07:30;5.00;99.90
3001;DHT22;1510;51.072;6.678;2023-01-30T04:09:58;5.00;99.90
3001;DHT22;1510;51.072;6.678;2023-01-30T04:12:25;5.00;99.90
3001;DHT22;1510;51.072;6.678;2023-01-30T04:14:51;5.00;99.90
3001;DHT22;1510;51.072;6.678;2023-01-30T04:17:18;5.00;99.90
3001;DHT22;1510;51.072;6.678;2023-01-30T04:19:45;5.10;99.90
3001;DHT22;1510;51.072;6.678;2023-01-30T04:22:12;5.00;99.90
3001;DHT22;1510;51.072;6.678;2023-01-30T04:24:38;5.10;99.90
3001;DHT22;1510;51.072;6.678;2023-01-30T04:27:06;5.00;99.90
3001;DHT22;1510;51.072;6.678;2023-01-30T04:29:34;5.00;99.90
3001;DHT22;1510;51.072;6.678;2023-01-30T04:32:00;5.10;99.90
3001;DHT22;1510;51.072;6.678;2023-01-30T04:34:27;5.00;99.90
3001;DHT22;1510;51.072;6.678;2023-01-30T04:36:54;5.10;99.90
3001;DHT22;1510;51.072;6.678;2023-01-30T04:39:20;5.00;99.90
3001;DHT22;1510;51.072;6.678;2023-01-30T04:41:47;5.00;99.90
3001;DHT22;1510;51.072;6.678;2023-01-30T04:44:15;4.90;99.90
3001;DHT22;1510;51.072;6.678;2023-01-30T04:46:42;5.00;99.90
3001;DHT22;1510;51.072;6.678;2023-01-30T04:49:09;5.00;99.90
3001;DHT22;1510;51.072;6.678;2023-01-30T04:51:36;5.00;99.90
3001;DHT22;1510;51.072;6.678;2023-01-30T04:54:03;5.00;99.90
3001;DHT22;1510;51.072;6.678;2023-01-30T04:56:30;5.00;99.90
3001;DHT22;1510;51.072;6.678;2023-01-30T04:58:57;5.00;99.90
3001;DHT22;1510;51.072;6.678;2023-01-30T05:01:30;5.00;99.90
3001;DHT22;1510;51.072;6.678;2023-01-30T05:03:57;5.00;99.90
3001;DHT22;1510;51.072;6.678;2023-01-30T05:06:24;5.10;99.90
3001;DHT22;1510;51.072;6.678;2023-01-30T05:08:53;5.00;99.90
3001;DHT22;1510;51.072;6.678;2023-01-30T05:11:20;5.00;99.90
3001;DHT22;1510;51.072;6.678;2023-01-30T05:13:47;5.00;99.90
3001;DHT22;1510;51.072;6.678;2023-01-30T05:16:15;5.00;99.90
3001;DHT22;1510;51.072;6.678;2023-01-30T05:18:43;5.10;99.90
3001;DHT22;1510;51.072;6.678;2023-01-30T05:21:12;5.10;99.90
3001;DHT22;1510;51.072;6.678;2023-01-30T05:23:40;5.10;99.90
3001;DHT22;1510;51.072;6.678;2023-01-30T05:26:06;5.00;99.90
3001;DHT22;1510;51.072;6.678;2023-01-30T05:28:33;5.10;99.90
3001;DHT22;1510;51.072;6.678;2023-01-30T05:31:01;5.00;99.90
3001;DHT22;1510;51.072;6.678;2023-01-30T05:33:28;5.10;99.90
3001;DHT22;1510;51.072;6.678;2023-01-30T05:35:56;5.10;99.90
3001;DHT22;1510;51.072;6.678;2023-01-30T05:38:24;5.10;99.90
3001;DHT22;1510;51.072;6.678;2023-01-30T05:40:57;5.10;99.90
3001;DHT22;1510;51.072;6.678;2023-01-30T05:43:24;5.20;99.90
3001;DHT22;1510;51.072;6.678;2023-01-30T05:45:51;5.20;99.90
3001;DHT22;1510;51.072;6.678;2023-01-30T05:48:19;5.20;99.90
3001;DHT22;1510;51.072;6.678;2023-01-30T05:50:46;5.20;99.90
3001;DHT22;1510;51.072;6.678;2023-01-30T05:53:14;5.20;99.90
3001;DHT22;1510;51.072;6.678;2023-01-30T05:55:41;5.30;99.90
3001;DHT22;1510;51.072;6.678;2023-01-30T05:58:09;5.30;99.90
3001;DHT22;1510;51.072;6.678;2023-01-30T06:00:35;5.30;99.90
3001;DHT22;1510;51.072;6.678;2023-01-30T06:03:02;5.40;99.90
3001;DHT22;1510;51.072;6.678;2023-01-30T06:05:29;5.50;99.90
3001;DHT22;1510;51.072;6.678;2023-01-30T06:07:56;5.50;99.90
3001;DHT22;1510;51.072;6.678;2023-01-30T06:10:24;5.50;99.90
3001;DHT22;1510;51.072;6.678;2023-01-30T06:12:51;5.60;99.90
3001;DHT22;1510;51.072;6.678;2023-01-30T06:15:17;5.60;99.90
3001;DHT22;1510;51.072;6.678;2023-01-30T06:17:44;5.60;99.90
3001;DHT22;1510;51.072;6.678;2023-01-30T06:20:11;5.70;99.90
3001;DHT22;1510;51.072;6.678;2023-01-30T06:22:38;5.70;99.90
3001;DHT22;1510;51.072;6.678;2023-01-30T06:25:05;5.70;99.90
3001;DHT22;1510;51.072;6.678;2023-01-30T06:27:34;5.60;99.90
3001;DHT22;1510;51.072;6.678;2023-01-30T06:30:01;5.70;99.90
3001;DHT22;1510;51.072;6.678;2023-01-30T06:32:28;5.70;99.90
3001;DHT22;1510;51.072;6.678;2023-01-30T06:34:55;5.70;99.90
3001;DHT22;1510;51.072;6.678;2023-01-30T06:37:21;5.80;99.90
3001;DHT22;1510;51.072;6.678;2023-01-30T06:39:48;5.80;99.90
3001;DHT22;1510;51.072;6.678;2023-01-30T06:42:15;5.80;99.90
3001;DHT22;1510;51.072;6.678;2023-01-30T06:44:43;5.80;99.90
3001;DHT22;1510;51.072;6.678;2023-01-30T06:47:09;5.80;99.90
3001;DHT22;1510;51.072;6.678;2023-01-30T06:49:36;5.80;99.90
3001;DHT22;1510;51.072;6.678;2023-01-30T06:52:03;5.90;99.90
3001;DHT22;1510;51.072;6.678;2023-01-30T06:54:30;5.90;99.90
3001;DHT22;1510;51.072;6.678;2023-01-30T06:56:57;5.90;99.90
3001;DHT22;1510;51.072;6.678;2023-01-30T06:59:23;5.90;99.90
3001;DHT22;1510;51.072;6.678;2023-01-30T07:01:51;6.00;99.90
3001;DHT22;1510;51.072;6.678;2023-01-30T07:04:18;5.90;99.90
3001;DHT22;1510;51.072;6.678;2023-01-30T07:06:45;5.90;99.90
3001;DHT22;1510;51.072;6.678;2023-01-30T07:09:12;5.90;99.90
3001;DHT22;1510;51.072;6.678;2023-01-30T07:11:39;5.90;99.90
3001;DHT22;1510;51.072;6.678;2023-01-30T07:14:05;5.80;99.90
3001;DHT22;1510;51.072;6.678;2023-01-30T07:16:32;5.80;99.90
3001;DHT22;1510;51.072;6.678;2023-01-30T07:19:00;5.80;99.90
3001;DHT22;1510;51.072;6.678;2023-01-30T07:21:27;5.90;99.90
3001;DHT22;1510;51.072;6.678;2023-01-30T07:23:53;5.90;99.90
3001;DHT22;1510;51.072;6.678;2023-01-30T07:26:20;5.90;99.90
3001;DHT22;1510;51.072;6.678;2023-01-30T07:28:47;6.00;99.90
3001;DHT22;1510;51.072;6.678;2023-01-30T07:31:14;6.00;99.90
3001;DHT22;1510;51.072;6.678;2023-01-30T07:33:40;6.00;99.90
3001;DHT22;1510;51.072;6.678;2023-01-30T07:36:09;5.90;99.90
3001;DHT22;1510;51.072;6.678;2023-01-30T07:38:35;6.00;99.90
3001;DHT22;1510;51.072;6.678;2023-01-30T07:41:02;6.00;99.90
3001;DHT22;1510;51.072;6.678;2023-01-30T07:43:29;6.00;99.90
3001;DHT22;1510;51.072;6.678;2023-01-30T07:45:55;6.00;99.90
3001;DHT22;1510;51.072;6.678;2023-01-30T07:48:22;6.00;99.90
3001;DHT22;1510;51.072;6.678;2023-01-30T07:50:49;6.10;99.90
3001;DHT22;1510;51.072;6.678;2023-01-30T07:53:17;6.10;99.90
3001;DHT22;1510;51.072;6.678;2023-01-30T07:55:44;6.20;99.90
3001;DHT22;1510;51.072;6.678;2023-01-30T07:58:11;6.20;99.90
3001;DHT22;1510;51.072;6.678;2023-01-30T08:00:39;6.20;99.90
3001;DHT22;1510;51.072;6.678;2023-01-30T08:03:09;6.20;99.90
3001;DHT22;1510;51.072;6.678;2023-01-30T08:05:36;6.20;99.90
3001;DHT22;1510;51.072;6.678;2023-01-30T08:08:03;6.30;99.90
3001;DHT22;1510;51.072;6.678;2023-01-30T08:10:31;6.20;99.90
3001;DHT22;1510;51.072;6.678;2023-01-30T08:12:58;6.20;99.90
3001;DHT22;1510;51.072;6.678;2023-01-30T08:15:25;6.20;99.90
3001;DHT22;1510;51.072;6.678;2023-01-30T08:17:55;6.20;99.90
3001;DHT22;1510;51.072;6.678;2023-01-30T08:20:22;6.20;99.90
3001;DHT22;1510;51.072;6.678;2023-01-30T08:22:49;6.20;99.90
3001;DHT22;1510;51.072;6.678;2023-01-30T08:25:16;6.10;99.90
3001;DHT22;1510;51.072;6.678;2023-01-30T08:27:44;6.10;99.90
3001;DHT22;1510;51.072;6.678;2023-01-30T08:30:11;6.10;99.90
3001;DHT22;1510;51.072;6.678;2023-01-30T08:32:38;6.10;99.90
3001;DHT22;1510;51.072;6.678;2023-01-30T08:35:06;6.10;99.90
3001;DHT22;1510;51.072;6.678;2023-01-30T08:37:33;6.20;99.90
3001;DHT22;1510;51.072;6.678;2023-01-30T08:39:59;6.20;99.90
3001;DHT22;1510;51.072;6.678;2023-01-30T08:42:26;6.20;99.90
3001;DHT22;1510;51.072;6.678;2023-01-30T08:44:54;6.20;99.90
3001;DHT22;1510;51.072;6.678;2023-01-30T08:47:21;6.30;99.90
3001;DHT22;1510;51.072;6.678;2023-01-30T08:49:48;6.50;99.90
3001;DHT22;1510;51.072;6.678;2023-01-30T08:52:15;6.50;99.90
3001;DHT22;1510;51.072;6.678;2023-01-30T08:54:42;6.70;99.90
3001;DHT22;1510;51.072;6.678;2023-01-30T08:57:09;6.60;99.90
3001;DHT22;1510;51.072;6.678;2023-01-30T08:59:36;6.60;99.90
3001;DHT22;1510;51.072;6.678;2023-01-30T09:02:04;6.70;99.90
3001;DHT22;1510;51.072;6.678;2023-01-30T09:04:31;6.60;99.90
3001;DHT22;1510;51.072;6.678;2023-01-30T09:06:58;6.70;99.90
3001;DHT22;1510;51.072;6.678;2023-01-30T09:09:25;6.70;99.90
3001;DHT22;1510;51.072;6.678;2023-01-30T09:11:51;6.70;99.90
3001;DHT22;1510;51.072;6.678;2023-01-30T09:14:18;6.70;99.90
3001;DHT22;1510;51.072;6.678;2023-01-30T09:16:45;6.80;99.90
3001;DHT22;1510;51.072;6.678;2023-01-30T09:19:13;6.80;99.90
3001;DHT22;1510;51.072;6.678;2023-01-30T09:21:40;6.90;99.90
3001;DHT22;1510;51.072;6.678;2023-01-30T09:24:07;7.00;99.90
3001;DHT22;1510;51.072;6.678;2023-01-30T09:26:34;7.10;99.90
3001;DHT22;1510;51.072;6.678;2023-01-30T09:29:02;7.20;99.90
3001;DHT22;1510;51.072;6.678;2023-01-30T09:31:28;7.10;99.90
3001;DHT22;1510;51.072;6.678;2023-01-30T09:33:55;7.00;99.90
3001;DHT22;1510;51.072;6.678;2023-01-30T09:36:23;7.10;99.90
3001;DHT22;1510;51.072;6.678;2023-01-30T09:38:50;7.10;99.90
3001;DHT22;1510;51.072;6.678;2023-01-30T09:41:31;7.10;99.90
3001;DHT22;1510;51.072;6.678;2023-01-30T09:44:19;7.10;99.90
3001;DHT22;1510;51.072;6.678;2023-01-30T09:47:01;7.20;99.90
3001;DHT22;1510;51.072;6.678;2023-01-30T09:49:41;7.20;99.90
3001;DHT22;1510;51.072;6.678;2023-01-30T09:52:20;7.30;99.90
3001;DHT22;1510;51.072;6.678;2023-01-30T09:54:53;7.20;99.90
3001;DHT22;1510;51.072;6.678;2023-01-30T09:57:23;7.30;99.90
3001;DHT22;1510;51.072;6.678;2023-01-30T09:59:55;7.40;99.90
3001;DHT22;1510;51.072;6.678;2023-01-30T10:02:40;7.50;99.90
3001;DHT22;1510;51.072;6.678;2023-01-30T10:05:09;7.60;99.90
3001;DHT22;1510;51.072;6.678;2023-01-30T10:07:46;7.70;99.90
3001;DHT22;1510;51.072;6.678;2023-01-30T10:10:19;7.70;99.90
3001;DHT22;1510;51.072;6.678;2023-01-30T10:12:56;7.90;99.90
3001;DHT22;1510;51.072;6.678;2023-01-30T10:15:37;8.00;99.90
3001;DHT22;1510;51.072;6.678;2023-01-30T10:18:30;8.10;99.90
3001;DHT22;1510;51.072;6.678;2023-01-30T10:21:09;8.00;99.90
3001;DHT22;1510;51.072;6.678;2023-01-30T10:24:01;8.00;99.90
3001;DHT22;1510;51.072;6.678;2023-01-30T10:26:30;8.00;99.90
3001;DHT22;1510;51.072;6.678;2023-01-30T10:29:00;8.00;99.90
3001;DHT22;1510;51.072;6.678;2023-01-30T10:31:36;8.00;99.90
3001;DHT22;1510;51.072;6.678;2023-01-30T10:34:09;8.00;99.90
3001;DHT22;1510;51.072;6.678;2023-01-30T10:36:42;7.90;99.90
3001;DHT22;1510;51.072;6.678;2023-01-30T10:39:21;7.80;99.90
3001;DHT22;1510;51.072;6.678;2023-01-30T10:41:55;7.90;99.90
3001;DHT22;1510;51.072;6.678;2023-01-30T10:44:22;7.90;99.90
3001;DHT22;1510;51.072;6.678;2023-01-30T10:49:51;8.00;99.90
3001;DHT22;1510;51.072;6.678;2023-01-30T10:52:26;8.10;99.90
3001;DHT22;1510;51.072;6.678;2023-01-30T10:55:02;8.00;99.90
3001;DHT22;1510;51.072;6.678;2023-01-30T10:57:41;7.90;99.90
3001;DHT22;1510;51.072;6.678;2023-01-30T11:00:16;7.80;99.90
3001;DHT22;1510;51.072;6.678;2023-01-30T11:02:57;7.90;99.90
3001;DHT22;1510;51.072;6.678;2023-01-30T11:05:26;7.80;99.90
3001;DHT22;1510;51.072;6.678;2023-01-30T11:07:54;7.70;99.90
3001;DHT22;1510;51.072;6.678;2023-01-30T11:10:24;7.70;99.90
3001;DHT22;1510;51.072;6.678;2023-01-30T11:12:52;7.60;99.90
3001;DHT22;1510;51.072;6.678;2023-01-30T11:15:21;7.50;99.90
3001;DHT22;1510;51.072;6.678;2023-01-30T11:17:49;7.60;99.90
3001;DHT22;1510;51.072;6.678;2023-01-30T11:20:18;7.50;99.90
3001;DHT22;1510;51.072;6.678;2023-01-30T11:22:47;7.50;99.90
3001;DHT22;1510;51.072;6.678;2023-01-30T11:25:17;7.50;99.90
3001;DHT22;1510;51.072;6.678;2023-01-30T11:27:51;7.50;99.90
3001;DHT22;1510;51.072;6.678;2023-01-30T11:30:20;7.50;99.90
3001;DHT22;1510;51.072;6.678;2023-01-30T11:32:48;7.50;99.90
3001;DHT22;1510;51.072;6.678;2023-01-30T11:35:27;7.50;99.90
3001;DHT22;1510;51.072;6.678;2023-01-30T11:38:10;7.50;99.90
3001;DHT22;1510;51.072;6.678;2023-01-30T11:40:38;7.60;99.90
3001;DHT22;1510;51.072;6.678;2023-01-30T11:43:11;7.60;99.90
3001;DHT22;1510;51.072;6.678;2023-01-30T11:45:39;7.70;99.90
3001;DHT22;1510;51.072;6.678;2023-01-30T11:48:14;7.70;99.90
3001;DHT22;1510;51.072;6.678;2023-01-30T11:50:43;7.80;99.90
3001;DHT22;1510;51.072;6.678;2023-01-30T11:53:19;7.80;99.90
3001;DHT22;1510;51.072;6.678;2023-01-30T11:55:47;7.80;99.90
3001;DHT22;1510;51.072;6.678;2023-01-30T11:58:15;7.70;99.90
3001;DHT22;1510;51.072;6.678;2023-01-30T12:00:46;7.80;99.90
3001;DHT22;1510;51.072;6.678;2023-01-30T12:03:16;7.90;99.90
3001;DHT22;1510;51.072;6.678;2023-01-30T12:05:44;7.80;99.90
3001;DHT22;1510;51.072;6.678;2023-01-30T12:08:21;7.90;99.90
3001;DHT22;1510;51.072;6.678;2023-01-30T12:10:53;7.90;99.90
3001;DHT22;1510;51.072;6.678;2023-01-30T12:13:28;7.80;99.90
3001;DHT22;1510;51.072;6.678;2023-01-30T12:16:03;7.70;99.90
3001;DHT22;1510;51.072;6.678;2023-01-30T12:18:36;7.60;99.90
3001;DHT22;1510;51.072;6.678;2023-01-30T12:21:12;7.60;99.90
3001;DHT22;1510;51.072;6.678;2023-01-30T12:23:44;7.50;99.90
3001;DHT22;1510;51.072;6.678;2023-01-30T12:26:13;7.50;99.90
3001;DHT22;1510;51.072;6.678;2023-01-30T12:28:46;7.60;99.90
3001;DHT22;1510;51.072;6.678;2023-01-30T12:31:20;7.60;99.90
3001;DHT22;1510;51.072;6.678;2023-01-30T12:33:48;7.60;99.90
3001;DHT22;1510;51.072;6.678;2023-01-30T12:36:23;7.50;99.90
3001;DHT22;1510;51.072;6.678;2023-01-30T12:39:09;7.50;99.90
3001;DHT22;1510;51.072;6.678;2023-01-30T12:41:52;7.70;99.90
3001;DHT22;1510;51.072;6.678;2023-01-30T12:44:35;7.70;99.90
3001;DHT22;1510;51.072;6.678;2023-01-30T12:47:19;7.90;99.90
3001;DHT22;1510;51.072;6.678;2023-01-30T12:50:05;8.00;99.90
3001;DHT22;1510;51.072;6.678;2023-01-30T12:52:57;8.10;99.90
3001;DHT22;1510;51.072;6.678;2023-01-30T12:55:35;8.30;99.90
3001;DHT22;1510;51.072;6.678;2023-01-30T12:58:10;8.40;99.90
3001;DHT22;1510;51.072;6.678;2023-01-30T13:00:59;8.60;99.80
3001;DHT22;1510;51.072;6.678;2023-01-30T13:03:32;8.60;99.00
3001;DHT22;1510;51.072;6.678;2023-01-30T13:06:09;8.50;99.90
3001;DHT22;1510;51.072;6.678;2023-01-30T13:08:48;8.20;99.50
3001;DHT22;1510;51.072;6.678;2023-01-30T13:11:32;8.20;98.30
3001;DHT22;1510;51.072;6.678;2023-01-30T13:14:10;8.20;99.50
3001;DHT22;1510;51.072;6.678;2023-01-30T13:16:51;8.10;99.60
3001;DHT22;1510;51.072;6.678;2023-01-30T13:19:24;8.20;99.90
3001;DHT22;1510;51.072;6.678;2023-01-30T13:21:58;8.30;98.30
3001;DHT22;1510;51.072;6.678;2023-01-30T13:24:39;8.20;99.90
3001;DHT22;1510;51.072;6.678;2023-01-30T13:27:12;8.10;99.90
3001;DHT22;1510;51.072;6.678;2023-01-30T13:29:41;8.20;99.90
3001;DHT22;1510;51.072;6.678;2023-01-30T13:32:14;8.10;99.90
3001;DHT22;1510;51.072;6.678;2023-01-30T13:34:43;8.00;99.90
3001;DHT22;1510;51.072;6.678;2023-01-30T13:37:14;7.90;99.90
3001;DHT22;1510;51.072;6.678;2023-01-30T13:39:45;7.80;99.90
3001;DHT22;1510;51.072;6.678;2023-01-30T13:42:22;7.90;99.90
3001;DHT22;1510;51.072;6.678;2023-01-30T13:44:51;7.80;99.90
3001;DHT22;1510;51.072;6.678;2023-01-30T13:47:31;7.70;99.90
3001;DHT22;1510;51.072;6.678;2023-01-30T13:50:18;7.70;99.90
3001;DHT22;1510;51.072;6.678;2023-01-30T13:52:54;8.00;99.90
3001;DHT22;1510;51.072;6.678;2023-01-30T13:55:27;7.90;99.50
3001;DHT22;1510;51.072;6.678;2023-01-30T13:58:02;7.80;99.90
3001;DHT22;1510;51.072;6.678;2023-01-30T14:00:31;7.80;99.90
3001;DHT22;1510;51.072;6.678;2023-01-30T14:03:22;7.80;99.90
3001;DHT22;1510;51.072;6.678;2023-01-30T14:06:30;7.90;99.90
3001;DHT22;1510;51.072;6.678;2023-01-30T14:09:02;7.80;99.90
3001;DHT22;1510;51.072;6.678;2023-01-30T14:11:40;7.90;99.90
3001;DHT22;1510;51.072;6.678;2023-01-30T14:14:24;7.90;98.70
3001;DHT22;1510;51.072;6.678;2023-01-30T14:16:53;7.90;99.90
3001;DHT22;1510;51.072;6.678;2023-01-30T14:19:35;7.80;99.90
3001;DHT22;1510;51.072;6.678;2023-01-30T14:22:15;7.90;99.90
3001;DHT22;1510;51.072;6.678;2023-01-30T14:24:43;7.80;99.90
3001;DHT22;1510;51.072;6.678;2023-01-30T14:27:24;7.90;99.50
3001;DHT22;1510;51.072;6.678;2023-01-30T14:29:56;7.80;99.10
3001;DHT22;1510;51.072;6.678;2023-01-30T14:32:51;7.80;99.00
3001;DHT22;1510;51.072;6.678;2023-01-30T14:35:25;7.90;97.30
3001;DHT22;1510;51.072;6.678;2023-01-30T14:38:16;7.80;97.90
3001;DHT22;1510;51.072;6.678;2023-01-30T14:41:22;7.80;98.10
3001;DHT22;1510;51.072;6.678;2023-01-30T14:43:38;7.70;97.70
3001;DHT22;1510;51.072;6.678;2023-01-30T14:46:47;7.70;98.10
3001;DHT22;1510;51.072;6.678;2023-01-30T14:49:29;7.80;98.00
3001;DHT22;1510;51.072;6.678;2023-01-30T14:51:58;7.80;99.00
3001;DHT22;1510;51.072;6.678;2023-01-30T14:54:29;7.80;98.20
3001;DHT22;1510;51.072;6.678;2023-01-30T14:56:58;7.80;98.30
3001;DHT22;1510;51.072;6.678;2023-01-30T14:59:28;7.90;97.70
3001;DHT22;1510;51.072;6.678;2023-01-30T15:02:00;7.70;97.70
3001;DHT22;1510;51.072;6.678;2023-01-30T15:04:30;7.80;98.40
3001;DHT22;1510;51.072;6.678;2023-01-30T15:07:04;7.70;98.30
3001;DHT22;1510;51.072;6.678;2023-01-30T15:09:35;7.70;99.00
3001;DHT22;1510;51.072;6.678;2023-01-30T15:15:29;7.50;99.40
3001;DHT22;1510;51.072;6.678;2023-01-30T15:18:20;7.50;99.90
3001;DHT22;1510;51.072;6.678;2023-01-30T15:21:10;7.50;99.30
3001;DHT22;1510;51.072;6.678;2023-01-30T15:23:55;7.50;99.90
3001;DHT22;1510;51.072;6.678;2023-01-30T15:26:34;7.50;98.60
3001;DHT22;1510;51.072;6.678;2023-01-30T15:29:34;7.60;99.30
3001;DHT22;1510;51.072;6.678;2023-01-30T15:32:15;7.40;99.50
3001;DHT22;1510;51.072;6.678;2023-01-30T15:34:49;7.30;99.90
3001;DHT22;1510;51.072;6.678;2023-01-30T15:37:32;7.20;99.90
3001;DHT22;1510;51.072;6.678;2023-01-30T15:40:20;7.20;99.90
3001;DHT22;1510;51.072;6.678;2023-01-30T15:42:49;7.20;99.90
3001;DHT22;1510;51.072;6.678;2023-01-30T15:45:27;7.20;99.90
3001;DHT22;1510;51.072;6.678;2023-01-30T15:48:18;7.00;99.90
3001;DHT22;1510;51.072;6.678;2023-01-30T15:50:47;6.90;99.90
3001;DHT22;1510;51.072;6.678;2023-01-30T15:53:15;6.80;99.90
3001;DHT22;1510;51.072;6.678;2023-01-30T15:55:44;6.80;99.90
3001;DHT22;1510;51.072;6.678;2023-01-30T15:58:15;6.70;99.90
3001;DHT22;1510;51.072;6.678;2023-01-30T16:00:45;6.60;99.90
3001;DHT22;1510;51.072;6.678;2023-01-30T16:03:16;6.50;99.90
3001;DHT22;1510;51.072;6.678;2023-01-30T16:05:46;6.50;99.90
3001;DHT22;1510;51.072;6.678;2023-01-30T16:08:18;6.30;99.90
3001;DHT22;1510;51.072;6.678;2023-01-30T16:10:48;6.20;99.90
3001;DHT22;1510;51.072;6.678;2023-01-30T16:13:16;6.30;99.90
3001;DHT22;1510;51.072;6.678;2023-01-30T16:15:47;6.30;99.90
3001;DHT22;1510;51.072;6.678;2023-01-30T16:18:22;6.30;99.90
3001;DHT22;1510;51.072;6.678;2023-01-30T16:20:53;6.40;99.90
3001;DHT22;1510;51.072;6.678;2023-01-30T16:23:22;6.30;99.90
3001;DHT22;1510;51.072;6.678;2023-01-30T16:25:54;6.30;99.90
3001;DHT22;1510;51.072;6.678;2023-01-30T16:28:21;6.10;99.90
3001;DHT22;1510;51.072;6.678;2023-01-30T16:30:56;6.10;99.90
3001;DHT22;1510;51.072;6.678;2023-01-30T16:33:23;6.10;99.90
3001;DHT22;1510;51.072;6.678;2023-01-30T16:35:50;6.00;99.90
3001;DHT22;1510;51.072;6.678;2023-01-30T16:38:33;6.00;99.90
3001;DHT22;1510;51.072;6.678;2023-01-30T16:41:02;6.00;99.90
3001;DHT22;1510;51.072;6.678;2023-01-30T16:43:30;6.00;99.90
3001;DHT22;1510;51.072;6.678;2023-01-30T16:49:01;5.90;99.90
3001;DHT22;1510;51.072;6.678;2023-01-30T16:51:29;5.90;99.90
3001;DHT22;1510;51.072;6.678;2023-01-30T16:54:00;5.90;99.90